Time;durP1;ratioP1;P1;durP2;ratioP2;P2;SDS_P1;SDS_P2;PMS_P1;PMS_P2;Temp;Humidity;BMP_temperature;BMP_pressure;BME280_temperature;BME280_humidity;BME280_pressure;Samples;Min_cycle;Max_cycle;Signal;HPM_P1;HPM_P2
2021/01/29 00:00:09;;;;;;;0.70;0.60;;;;;;;;;;5000714;28;20219;-79
2021/01/29 00:02:35;;;;;;;1.33;0.83;;;;;;;;;;5000211;28;20218;-79
2021/01/29 00:05:01;;;;;;;0.90;0.70;;;;;;;;;;4999184;28;20186;-78
2021/01/29 00:07:27;;;;;;;0.80;0.70;;;;;;;;;;5000878;28;20182;-79
2021/01/29 00:09:54;;;;;;;1.13;0.90;;;;;;;;;;5001187;28;20208;-78
2021/01/29 00:12:20;;;;;;;0.70;0.70;;;;;;;;;;5001866;28;20208;-80
2021/01/29 00:14:47;;;;;;;1.37;0.90;;;;;;;;;;5001802;28;20185;-79
2021/01/29 00:17:13;;;;;;;1.30;1.00;;;;;;;;;;5001478;28;20245;-80
2021/01/29 00:19:39;;;;;;;1.10;1.10;;;;;;;;;;5001825;28;20294;-79
2021/01/29 00:22:05;;;;;;;1.73;1.10;;;;;;;;;;5001808;28;20248;-79
2021/01/29 00:24:31;;;;;;;1.30;1.20;;;;;;;;;;4983704;28;20273;-80
2021/01/29 00:26:57;;;;;;;1.30;1.20;;;;;;;;;;4991172;28;20175;-79
2021/01/29 00:29:23;;;;;;;1.37;1.27;;;;;;;;;;5001680;28;20217;-80
2021/01/29 00:31:50;;;;;;;1.63;1.40;;;;;;;;;;5001845;28;20650;-80
2021/01/29 00:34:16;;;;;;;1.77;1.57;;;;;;;;;;5001441;28;20194;-80
2021/01/29 00:36:43;;;;;;;1.53;0.87;;;;;;;;;;5001600;28;20650;-80
2021/01/29 00:39:09;;;;;;;1.40;1.30;;;;;;;;;;5001660;28;20250;-81
2021/01/29 00:41:35;;;;;;;1.27;1.17;;;;;;;;;;5001388;28;20233;-80
2021/01/29 00:44:02;;;;;;;0.90;0.90;;;;;;;;;;5001389;28;20183;-80
2021/01/29 00:46:28;;;;;;;0.90;0.90;;;;;;;;;;5001353;28;20193;-78
2021/01/29 00:48:54;;;;;;;1.20;1.10;;;;;;;;;;5000693;28;20182;-80
2021/01/29 00:51:20;;;;;;;0.97;0.90;;;;;;;;;;5001053;28;20558;-80
2021/01/29 00:53:46;;;;;;;1.30;1.20;;;;;;;;;;4983389;28;20182;-80
2021/01/29 00:56:12;;;;;;;1.70;0.83;;;;;;;;;;4983087;28;20189;-80
2021/01/29 00:58:38;;;;;;;1.80;0.97;;;;;;;;;;5000720;28;20180;-80
2021/01/29 01:01:05;;;;;;;0.87;0.87;;;;;;;;;;4982563;28;20589;-80
2021/01/29 01:03:31;;;;;;;0.80;0.80;;;;;;;;;;5000441;28;20633;-79
2021/01/29 01:05:58;;;;;;;0.67;0.67;;;;;;;;;;5001090;28;20191;-79
2021/01/29 01:08:24;;;;;;;1.00;0.90;;;;;;;;;;5000878;28;20186;-79
2021/01/29 01:10:51;;;;;;;1.23;1.10;;;;;;;;;;5000526;28;20231;-80
2021/01/29 01:13:18;;;;;;;1.50;1.30;;;;;;;;;;5000360;28;20283;-80
2021/01/29 01:15:43;;;;;;;1.07;0.90;;;;;;;;;;5000191;28;20183;-80
2021/01/29 01:18:10;;;;;;;0.80;0.80;;;;;;;;;;5000407;28;20259;-79
2021/01/29 01:20:36;;;;;;;0.67;0.67;;;;;;;;;;4999983;28;20196;-80
2021/01/29 01:23:03;;;;;;;0.73;0.67;;;;;;;;;;4999878;28;20200;-79
2021/01/29 01:25:30;;;;;;;0.60;0.60;;;;;;;;;;5000153;28;20189;-79
2021/01/29 01:27:56;;;;;;;0.63;0.63;;;;;;;;;;5000374;28;20201;-79
2021/01/29 01:30:24;;;;;;;0.63;0.57;;;;;;;;;;4999365;28;20288;-79
2021/01/29 01:32:51;;;;;;;0.93;0.63;;;;;;;;;;5000262;28;20207;-79
2021/01/29 01:35:18;;;;;;;1.23;0.70;;;;;;;;;;5001872;28;20526;-79
2021/01/29 01:37:44;;;;;;;0.50;0.50;;;;;;;;;;4982100;28;20635;-78
2021/01/29 01:40:10;;;;;;;0.90;0.50;;;;;;;;;;5001099;28;20199;-80
2021/01/29 01:42:36;;;;;;;3.20;0.50;;;;;;;;;;5000263;28;20544;-80
2021/01/29 01:45:23;;;;;;;1.13;0.40;;;;;;;;;;4999251;28;20192;-80
2021/01/29 01:47:49;;;;;;;0.60;0.60;;;;;;;;;;4999745;28;20181;-80
2021/01/29 01:50:32;;;;;;;0.60;0.53;;;;;;;;;;5000106;28;20545;-80
2021/01/29 01:52:59;;;;;;;0.83;0.40;;;;;;;;;;4999898;28;20185;-80
2021/01/29 01:55:29;;;;;;;0.80;0.60;;;;;;;;;;4999098;28;20608;-80
2021/01/29 01:57:56;;;;;;;0.40;0.40;;;;;;;;;;4999817;28;20189;-80
2021/01/29 02:00:28;;;;;;;0.93;0.47;;;;;;;;;;4999011;28;20252;-80
2021/01/29 02:03:02;;;;;;;0.73;0.60;;;;;;;;;;4999171;28;20201;-80
2021/01/29 02:05:36;;;;;;;1.27;0.60;;;;;;;;;;4999009;28;20667;-79
2021/01/29 02:08:04;;;;;;;0.80;0.43;;;;;;;;;;4999176;28;20193;-80
2021/01/29 02:10:31;;;;;;;0.83;0.40;;;;;;;;;;4999436;28;20225;-79
2021/01/29 02:12:58;;;;;;;0.80;0.50;;;;;;;;;;4997282;28;20261;-81
2021/01/29 02:15:26;;;;;;;0.30;0.30;;;;;;;;;;4999757;28;20248;-80
2021/01/29 02:18:10;;;;;;;0.60;0.60;;;;;;;;;;4998742;28;20593;-78
2021/01/29 02:20:39;;;;;;;0.40;0.40;;;;;;;;;;4979625;28;20298;-78
2021/01/29 02:23:34;;;;;;;0.40;0.40;;;;;;;;;;4997981;28;20229;-78
2021/01/29 02:26:03;;;;;;;1.40;0.60;;;;;;;;;;4998802;28;20191;-80
2021/01/29 02:28:33;;;;;;;1.27;0.50;;;;;;;;;;4998358;28;20678;-81
2021/01/29 02:31:05;;;;;;;0.67;0.50;;;;;;;;;;4998208;28;20205;-80
2021/01/29 02:33:31;;;;;;;0.60;0.60;;;;;;;;;;4995856;28;20268;-77
2021/01/29 02:36:07;;;;;;;0.90;0.80;;;;;;;;;;4997821;28;20625;-80
2021/01/29 02:38:52;;;;;;;0.70;0.70;;;;;;;;;;4998867;28;20180;-81
2021/01/29 02:41:18;;;;;;;1.73;0.97;;;;;;;;;;4980206;28;20237;-78
2021/01/29 02:44:03;;;;;;;1.50;1.40;;;;;;;;;;4980092;28;20601;-80
2021/01/29 02:46:33;;;;;;;1.10;0.90;;;;;;;;;;4998351;28;20583;-80
2021/01/29 02:49:05;;;;;;;3.03;0.90;;;;;;;;;;4998731;28;20202;-80
2021/01/29 02:51:50;;;;;;;1.13;1.03;;;;;;;;;;4997921;28;20188;-81
2021/01/29 02:54:39;;;;;;;1.53;1.00;;;;;;;;;;4998478;28;20533;-80
2021/01/29 02:57:25;;;;;;;1.53;0.70;;;;;;;;;;4983278;28;20205;-80
2021/01/29 02:59:53;;;;;;;0.70;0.60;;;;;;;;;;4980696;28;20242;-77
2021/01/29 03:02:23;;;;;;;1.90;0.80;;;;;;;;;;4995583;28;20562;-80
2021/01/29 03:04:53;;;;;;;1.00;0.60;;;;;;;;;;4977644;28;20255;-80
2021/01/29 03:07:40;;;;;;;0.50;0.50;;;;;;;;;;4997968;28;20179;-80
2021/01/29 03:10:10;;;;;;;1.23;0.63;;;;;;;;;;4957916;28;20212;-81
2021/01/29 03:12:41;;;;;;;1.40;0.60;;;;;;;;;;4997631;28;20241;-80
2021/01/29 03:15:16;;;;;;;0.87;0.40;;;;;;;;;;4996087;28;20272;-80
2021/01/29 03:17:49;;;;;;;2.10;0.50;;;;;;;;;;4997332;28;20175;-81
2021/01/29 03:20:26;;;;;;;0.50;0.40;;;;;;;;;;4993744;28;20222;-81
2021/01/29 03:23:01;;;;;;;1.90;0.60;;;;;;;;;;4997661;28;20727;-81
2021/01/29 03:25:29;;;;;;;1.87;0.60;;;;;;;;;;4980275;28;20539;-81
2021/01/29 03:27:58;;;;;;;0.20;0.20;;;;;;;;;;4997823;28;20184;-81
2021/01/29 03:30:27;;;;;;;0.27;0.10;;;;;;;;;;4997083;28;20192;-81
2021/01/29 03:32:56;;;;;;;0.20;0.20;;;;;;;;;;4996895;28;20276;-81
2021/01/29 03:35:28;;;;;;;0.40;0.20;;;6.90;99.90;;;;;;4980027;28;20191;-80
2021/01/29 03:38:08;;;;;;;0.47;0.20;;;8.10;99.90;;;;;;4996918;28;20181;-80
2021/01/29 03:40:41;;;;;;;0.40;0.13;;;8.10;99.90;;;;;;4993221;28;20215;-79
2021/01/29 03:43:42;;;;;;;0.73;0.20;;;8.10;99.90;;;;;;4977020;28;20184;-80
2021/01/29 03:46:32;;;;;;;0.10;0.10;;;8.10;99.90;;;;;;5003154;28;20193;-79
2021/01/29 03:49:12;;;;;;;0.20;0.13;;;8.10;99.90;;;;;;4986297;28;20625;-79
2021/01/29 03:51:59;;;;;;;0.93;0.20;;;8.00;99.90;;;;;;4996814;28;20188;-78
2021/01/29 03:54:34;;;;;;;0.20;0.20;;;8.00;99.90;;;;;;4979263;28;20186;-78
2021/01/29 03:57:08;;;;;;;0.27;0.27;;;8.10;99.90;;;;;;4996143;28;20193;-78
2021/01/29 04:00:11;;;;;;;0.53;0.40;;;8.10;99.90;;;;;;4995813;28;20230;-78
2021/01/29 04:02:56;;;;;;;0.70;0.47;;;;;;;;;;4993357;28;20217;-79
2021/01/29 04:05:24;;;;;;;0.40;0.20;;;;;;;;;;4998530;28;20190;-78
2021/01/29 04:07:52;;;;;;;0.30;0.30;;;;;;;;;;4997119;28;20187;-78
2021/01/29 04:10:19;;;;;;;2.03;0.30;;;;;;;;;;4994868;28;20275;-79
2021/01/29 04:12:53;;;;;;;0.30;0.30;;;;;;;;;;4997940;28;20553;-78
2021/01/29 04:15:22;;;;;;;0.37;0.20;;;;;;;;;;4996959;28;20177;-79
2021/01/29 04:17:57;;;;;;;0.60;0.33;;;;;;;;;;4996656;28;20200;-79
2021/01/29 04:20:26;;;;;;;1.73;0.40;;;;;;;;;;4996784;28;20205;-79
2021/01/29 04:22:54;;;;;;;0.83;0.30;;;;;;;;;;4996777;28;20201;-79
2021/01/29 04:25:26;;;;;;;1.03;0.33;;;;;;;;;;4997302;28;20178;-80
2021/01/29 04:27:57;;;;;;;0.70;0.33;;;;;;;;;;4999450;28;20205;-79
2021/01/29 04:30:26;;;;;;;0.20;0.20;;;;;;;;;;4998964;28;20191;-80
2021/01/29 04:32:58;;;;;;;0.47;0.40;;;;;;;;;;5001019;28;20194;-80
2021/01/29 04:35:25;;;;;;;0.20;0.20;;;;;;;;;;4982838;28;20243;-80
2021/01/29 04:37:57;;;;;;;0.60;0.30;;;;;;;;;;5000275;28;20526;-79
2021/01/29 04:40:32;;;;;;;2.00;0.70;;;;;;;;;;5000678;28;20542;-80
2021/01/29 04:43:13;;;;;;;2.03;0.60;;;;;;;;;;5000572;28;20585;-79
2021/01/29 04:45:40;;;;;;;1.10;0.50;;;;;;;;;;5000771;28;20211;-79
2021/01/29 04:48:09;;;;;;;1.37;0.40;;;;;;;;;;5000652;28;20182;-79
2021/01/29 04:50:44;;;;;;;0.57;0.20;;;;;;;;;;4999545;28;20692;-79
2021/01/29 04:53:35;;;;;;;0.30;0.20;;;;;;;;;;5000202;28;20651;-80
2021/01/29 04:56:04;;;;;;;0.20;0.20;;;;;;;;;;5000299;28;20591;-80
2021/01/29 04:58:33;;;;;;;0.40;0.20;;;;;;;;;;5000347;28;20287;-80
2021/01/29 05:01:00;;;;;;;0.33;0.30;;;;;;;;;;5025626;22;20326;-79
2021/01/29 05:03:31;;;;;;;0.20;0.20;;;;;;;;;;5008016;28;20204;-78
2021/01/29 05:06:10;;;;;;;0.43;0.20;;;;;;;;;;5013485;28;20191;-80
2021/01/29 05:08:40;;;;;;;0.47;0.23;;;;;;;;;;5021253;28;20234;-79
2021/01/29 05:11:19;;;;;;;0.40;0.37;;;;;;;;;;5020648;28;20232;-78
2021/01/29 05:14:03;;;;;;;0.50;0.30;;;;;;;;;;5020059;28;20235;-79
2021/01/29 05:16:49;;;;;;;0.70;0.23;;;;;;;;;;5019591;28;20680;-80
2021/01/29 05:19:28;;;;;;;1.70;0.30;;;;;;;;;;5025080;28;20189;-79
2021/01/29 05:22:03;;;;;;;0.43;0.20;;;;;;;;;;5021063;28;20196;-79
2021/01/29 05:24:29;;;;;;;0.27;0.27;;;;;;;;;;5021055;28;20209;-80
2021/01/29 05:27:02;;;;;;;0.80;0.30;;;;;;;;;;5020530;28;20185;-78
2021/01/29 05:29:47;;;;;;;0.20;0.20;;;;;;;;;;5018538;28;20172;-79
2021/01/29 05:32:33;;;;;;;0.17;0.17;;;;;;;;;;5019947;28;20243;-79
2021/01/29 05:35:18;;;;;;;0.23;0.20;;;;;;;;;;5019489;28;20648;-79
2021/01/29 05:37:52;;;;;;;0.20;0.20;;;;;;;;;;5018468;28;20185;-79
2021/01/29 05:40:18;;;;;;;0.27;0.20;;;;;;;;;;5019344;28;20218;-78
2021/01/29 05:43:04;;;;;;;0.63;0.37;;;;;;;;;;5018851;28;20249;-78
2021/01/29 05:45:33;;;;;;;0.20;0.20;;;;;;;;;;5020095;28;20181;-78
2021/01/29 05:48:18;;;;;;;0.83;0.30;;;;;;;;;;5010569;28;20187;-79
2021/01/29 05:50:56;;;;;;;0.60;0.60;;;;;;;;;;5019843;28;20220;-80
2021/01/29 05:53:22;;;;;;;1.03;0.93;;;;;;;;;;5018852;28;20176;-80
2021/01/29 05:55:51;;;;;;;0.87;0.87;;;;;;;;;;5019545;28;20175;-80
2021/01/29 05:58:20;;;;;;;0.30;0.30;;;;;;;;;;5022717;28;20176;-79
2021/01/29 06:01:05;;;;;;;0.40;0.27;;;;;;;;;;5019682;28;20662;-78
2021/01/29 06:03:41;;;;;;;0.30;0.20;;;;;;;;;;5018530;28;20187;-79
2021/01/29 06:06:08;;;;;;;0.70;0.20;;;;;;;;;;5023299;28;20176;-79
2021/01/29 06:08:47;;;;;;;0.37;0.27;;;;;;;;;;5020498;28;20665;-79
2021/01/29 06:11:32;;;;;;;0.30;0.20;;;;;;;;;;5020168;28;20201;-79
2021/01/29 06:14:17;;;;;;;0.40;0.40;;;;;;;;;;5019087;28;20195;-78
2021/01/29 06:16:52;;;;;;;0.40;0.20;;;;;;;;;;5017754;28;20666;-80
2021/01/29 06:19:26;;;;;;;3.17;1.07;;;;;;;;;;5019842;28;20186;-79
2021/01/29 06:21:52;;;;;;;0.20;0.20;;;;;;;;;;5019572;28;20666;-79
2021/01/29 06:24:37;;;;;;;0.40;0.30;;;;;;;;;;5018961;28;20627;-78
2021/01/29 06:27:23;;;;;;;0.27;0.27;;;;;;;;;;5020470;28;20713;-79
2021/01/29 06:29:50;;;;;;;0.20;0.20;;;;;;;;;;5021098;28;20203;-80
2021/01/29 06:32:31;;;;;;;0.50;0.30;;;;;;;;;;5019475;28;20180;-80
2021/01/29 06:35:17;;;;;;;0.30;0.30;;;;;;;;;;5020534;28;20191;-80
2021/01/29 06:37:50;;;;;;;0.57;0.30;;;;;;;;;;5019683;28;20230;-79
2021/01/29 06:40:16;;;;;;;0.70;0.33;;;;;;;;;;5021826;28;20206;-79
2021/01/29 06:42:57;;;;;;;0.73;0.30;;;;;;;;;;5019627;28;20208;-78
2021/01/29 06:45:30;;;;;;;0.20;0.20;;;;;;;;;;5018142;28;20181;-79
2021/01/29 06:47:59;;;;;;;0.30;0.30;;;;;;;;;;5017675;28;20553;-78
2021/01/29 06:50:34;;;;;;;0.60;0.30;;;;;;;;;;5019125;28;20197;-78
2021/01/29 06:53:00;;;;;;;0.53;0.20;;;;;;;;;;5020212;28;20187;-79
2021/01/29 06:55:45;;;;;;;0.30;0.20;;;;;;;;;;5019291;28;20239;-79
2021/01/29 06:58:25;;;;;;;0.30;0.20;;;;;;;;;;5019964;28;20195;-80
2021/01/29 07:01:10;;;;;;;0.30;0.30;;;;;;;;;;5021552;28;20568;-80
2021/01/29 07:03:39;;;;;;;0.80;0.50;;;;;;;;;;5023194;28;20255;-80
2021/01/29 07:06:35;;;;;;;1.43;0.60;;;;;;;;;;5022856;28;20188;-79
2021/01/29 07:09:24;;;;;;;0.57;0.30;;;;;;;;;;4982058;28;20193;-78
2021/01/29 07:12:08;;;;;;;2.27;0.53;;;;;;;;;;5018525;28;20692;-79
2021/01/29 07:14:55;;;;;;;0.97;0.30;;;;;;;;;;5020708;28;20219;-79
2021/01/29 07:17:39;;;;;;;0.60;0.30;;;;;;;;;;5020752;28;20175;-80
2021/01/29 07:20:21;;;;;;;0.40;0.40;;;;;;;;;;5019853;28;20227;-79
2021/01/29 07:23:06;;;;;;;1.90;0.40;;;;;;;;;;5021354;28;20200;-79
2021/01/29 07:25:38;;;;;;;0.30;0.30;;;;;;;;;;5020941;28;20181;-79
2021/01/29 07:28:20;;;;;;;0.50;0.40;;;;;;;;;;5020440;28;20200;-80
2021/01/29 07:31:05;;;;;;;0.40;0.40;;;;;;;;;;5020992;28;20278;-80
2021/01/29 07:33:38;;;;;;;0.60;0.60;;;;;;;;;;5020179;28;20678;-80
2021/01/29 07:36:14;;;;;;;0.50;0.50;;;;;;;;;;5020964;28;20204;-80
2021/01/29 07:38:58;;;;;;;0.50;0.40;;;;;;;;;;5020949;28;20283;-80
2021/01/29 07:41:33;;;;;;;0.40;0.40;;;;;;;;;;5021166;28;20202;-80
2021/01/29 07:44:04;;;;;;;0.67;0.50;;;;;;;;;;5021160;28;20643;-80
2021/01/29 07:46:43;;;;;;;0.50;0.37;;;;;;;;;;5021130;28;20185;-79
2021/01/29 07:49:21;;;;;;;0.83;0.50;;;;;;;;;;5022293;28;20185;-79
2021/01/29 07:51:47;;;;;;;2.20;1.40;;;;;;;;;;5022495;28;20655;-80
2021/01/29 07:54:23;;;;;;;2.73;1.70;;;;;;;;;;5021102;28;20184;-80
2021/01/29 07:56:49;;;;;;;2.67;1.30;;;;;;;;;;5012779;28;20184;-80
2021/01/29 07:59:21;;;;;;;2.63;1.60;;;;;;;;;;5021252;28;20181;-80
2021/01/29 08:01:55;;;;;;;1.40;0.90;;;;;;;;;;5021111;28;20300;-80
2021/01/29 08:04:31;;;;;;;1.30;1.20;;;;;;;;;;5026755;28;20638;-80
2021/01/29 08:07:00;;;;;;;1.20;0.90;;;;;;;;;;5025248;28;20182;-79
2021/01/29 08:09:36;;;;;;;1.00;0.87;;;;;;;;;;5025377;28;20183;-80
2021/01/29 08:12:05;;;;;;;0.80;0.73;;;;;;;;;;5025795;28;20201;-80
2021/01/29 08:14:50;;;;;;;0.73;0.70;;;;;;;;;;5024743;28;20239;-79
2021/01/29 08:17:16;;;;;;;0.90;0.70;;;;;;;;;;5024138;28;20178;-80
2021/01/29 08:19:46;;;;;;;0.97;0.87;;;;;;;;;;5024720;28;20315;-80
2021/01/29 08:22:31;;;;;;;1.00;0.80;;;;;;;;;;5024927;28;20252;-80
2021/01/29 08:25:17;;;;;;;0.57;0.50;;;;;;;;;;5024775;28;20198;-78
2021/01/29 08:27:46;;;;;;;1.40;0.63;;;;;;;;;;4992722;28;20280;-79
2021/01/29 08:30:31;;;;;;;0.67;0.67;;;;;;;;;;5022462;28;20201;-79
2021/01/29 08:33:13;;;;;;;1.13;0.80;;;;;;;;;;5021795;28;20551;-79
2021/01/29 08:35:39;;;;;;;1.07;0.90;;;;;;;;;;5022676;28;20189;-79
2021/01/29 08:38:14;;;;;;;3.37;1.33;;;;;;;;;;5025980;28;20534;-79
2021/01/29 08:41:01;;;;;;;1.80;1.20;;;;;;;;;;5023492;28;20216;-79
2021/01/29 08:43:40;;;;;;;3.10;1.53;;;;;;;;;;5024414;28;20196;-79
2021/01/29 08:46:10;;;;;;;5.47;1.50;;;;;;;;;;5022825;28;20186;-79
2021/01/29 08:48:39;;;;;;;6.70;1.40;;;;;;;;;;5023089;28;20178;-79
2021/01/29 08:51:14;;;;;;;8.87;1.77;;;;;;;;;;5022053;28;20248;-79
2021/01/29 08:53:46;;;;;;;6.53;1.50;;;;;;;;;;5023850;28;20609;-80
2021/01/29 08:56:18;;;;;;;2.80;0.80;;;;;;;;;;5024583;28;20185;-80
2021/01/29 08:58:47;;;;;;;2.50;0.90;;;;;;;;;;5023257;28;20174;-78
2021/01/29 09:01:22;;;;;;;1.70;0.80;;;;;;;;;;5022619;28;20233;-78
2021/01/29 09:03:59;;;;;;;1.10;1.00;;;;;;;;;;5024386;28;20687;-80
2021/01/29 09:06:27;;;;;;;1.07;0.50;;;;;;;;;;5022787;28;20177;-79
2021/01/29 09:08:58;;;;;;;2.73;0.60;;;;;;;;;;5023924;28;20609;-80
2021/01/29 09:11:34;;;;;;;2.40;0.50;;;;;;;;;;5022115;28;20212;-79
2021/01/29 09:14:11;;;;;;;1.20;0.67;;;;;;;;;;5022115;28;20554;-79
2021/01/29 09:16:39;;;;;;;1.30;0.80;;;;;;;;;;5022515;28;20262;-80
2021/01/29 09:19:05;;;;;;;1.33;0.90;;;;;;;;;;5023389;28;20191;-79
2021/01/29 09:21:51;;;;;;;1.00;0.83;;;;;;;;;;5024741;28;20223;-80
2021/01/29 09:24:33;;;;;;;1.20;0.70;;;;;;;;;;5025765;28;20239;-78
2021/01/29 09:27:05;;;;;;;0.50;0.50;;;;;;;;;;5021771;28;20192;-79
2021/01/29 09:29:34;;;;;;;1.17;0.70;;;;;;;;;;5026487;28;20181;-79
2021/01/29 09:32:06;;;;;;;1.63;0.60;;;;;;;;;;5022323;28;20206;-79
2021/01/29 09:34:49;;;;;;;0.77;0.40;;;;;;;;;;5021782;28;20189;-79
2021/01/29 09:37:19;;;;;;;1.03;0.87;;;;;;;;;;5021126;28;20183;-79
2021/01/29 09:39:57;;;;;;;1.10;0.80;;;;;;;;;;5021555;28;20196;-78
2021/01/29 09:42:47;;;;;;;0.73;0.60;;;;;;;;;;5020592;28;20285;-79
2021/01/29 09:45:18;;;;;;;0.80;0.50;;;;;;;;;;5020982;28;20180;-78
2021/01/29 09:47:46;;;;;;;1.80;0.60;;;;;;;;;;5020933;28;20182;-79
2021/01/29 09:50:18;;;;;;;0.87;0.50;;;;;;;;;;5021251;28;20201;-79
2021/01/29 09:52:55;;;;;;;0.77;0.50;;;;;;;;;;5021789;28;20186;-79
2021/01/29 09:55:44;;;;;;;2.53;0.83;;;;;;;;;;5024396;28;20184;-78
2021/01/29 09:58:13;;;;;;;1.60;0.50;;;;;;;;;;5009972;28;20179;-78
2021/01/29 10:00:41;;;;;;;0.80;0.50;;;;;;;;;;5022294;28;20247;-79
2021/01/29 10:03:07;;;;;;;1.00;0.60;;;;;;;;;;5022805;28;20212;-78
2021/01/29 10:05:38;;;;;;;0.97;0.60;;;;;;;;;;5020737;28;20204;-78
2021/01/29 10:08:04;;;;;;;0.57;0.30;;;;;;;;;;5018773;28;20644;-78
2021/01/29 10:10:48;;;;;;;0.80;0.60;;;;;;;;;;5022447;28;20198;-78
2021/01/29 10:13:20;;;;;;;2.13;1.40;;;;;;;;;;5060050;22;20231;-79
2021/01/29 10:15:47;;;;;;;2.60;2.03;;;;;;;;;;5062839;28;20547;-79
2021/01/29 10:18:21;;;;;;;1.70;0.87;;;;;;;;;;5054172;28;20274;-79
2021/01/29 10:20:48;;;;;;;1.90;1.10;;;;;;;;;;5053237;28;20205;-80
2021/01/29 10:23:26;;;;;;;0.70;0.70;;;;;;;;;;5052181;28;20566;-78
2021/01/29 10:26:01;;;;;;;3.57;1.27;;;;;;;;;;5057565;28;20720;-78
2021/01/29 10:28:45;;;;;;;1.93;1.13;;;;;;;;;;5054929;28;20663;-78
2021/01/29 10:31:12;;;;;;;3.23;1.00;;;;;;;;;;5048828;28;20210;-78
2021/01/29 10:33:40;;;;;;;1.87;0.60;;;;;;;;;;5052387;28;20214;-78
2021/01/29 10:36:08;;;;;;;0.53;0.50;;;;;;;;;;5043067;28;20187;-76
2021/01/29 10:38:42;;;;;;;1.57;0.70;;;;;;;;;;5053126;28;20183;-77
2021/01/29 10:41:21;;;;;;;0.80;0.40;;;;;;;;;;5055457;28;20211;-78
2021/01/29 10:43:57;;;;;;;1.87;0.70;;;;;;;;;;5056519;28;20206;-78
2021/01/29 10:46:35;;;;;;;2.87;0.80;;;;;;;;;;5057211;28;20242;-77
2021/01/29 10:49:01;;;;;;;3.57;0.90;;;;;;;;;;5056125;28;20205;-77
2021/01/29 10:51:35;;;;;;;3.43;1.80;;;;;;;;;;5038456;28;20209;-78
2021/01/29 10:54:03;;;;;;;3.80;1.37;;;;;;;;;;5042787;28;20182;-77
2021/01/29 10:56:50;;;;;;;2.70;1.63;;;;;;;;;;5056272;28;20182;-78
2021/01/29 10:59:25;;;;;;;1.10;0.93;;;;;;;;;;5058554;28;20557;-79
2021/01/29 11:02:00;;;;;;;2.60;1.13;;;;;;;;;;5039232;22;20306;-77
2021/01/29 11:04:32;;;;;;;2.37;1.60;;;;;;;;;;5012327;28;20169;-78
2021/01/29 11:07:06;;;;;;;2.00;1.20;;;;;;;;;;5013137;28;20200;-78
2021/01/29 11:09:41;;;;;;;2.93;0.90;;;;;;;;;;5013946;28;20192;-78
2021/01/29 11:12:24;;;;;;;2.33;0.97;;;;;;;;;;5012202;28;20207;-78
2021/01/29 11:14:58;;;;;;;2.03;0.60;;;;;;;;;;5005623;28;20200;-79
2021/01/29 11:17:29;;;;;;;1.13;0.50;;;;;;;;;;5002646;28;20221;-78
2021/01/29 11:19:56;;;;;;;3.37;0.87;;;;;;;;;;4994779;28;20235;-78
2021/01/29 11:22:27;;;;;;;1.70;0.50;;;;;;;;;;5001660;28;20222;-78
2021/01/29 11:25:12;;;;;;;3.20;0.70;;;;;;;;;;5018058;28;20215;-79
2021/01/29 11:28:11;;;;;;;1.20;0.80;;;;;;;;;;5017330;28;20598;-79
2021/01/29 11:30:46;;;;;;;1.57;0.50;;;;;;;;;;5017855;28;20219;-80
2021/01/29 11:33:13;;;;;;;0.53;0.50;;;;;;;;;;5023116;28;20219;-78
2021/01/29 11:35:43;;;;;;;0.20;0.10;;;;;;;;;;5020453;28;20200;-79
2021/01/29 11:38:13;;;;;;;1.20;0.40;;;;;;;;;;5018051;28;20188;-79
2021/01/29 11:40:43;;;;;;;0.37;0.10;;;;;;;;;;5026996;28;20747;-79
2021/01/29 11:43:28;;;;;;;0.37;0.27;;;;;;;;;;5009559;28;20199;-79
2021/01/29 11:45:58;;;;;;;0.80;0.30;;;;;;;;;;5017212;28;20657;-79
2021/01/29 11:48:53;;;;;;;1.07;0.40;;;;;;;;;;5004974;28;20176;-78
2021/01/29 11:51:30;;;;;;;0.70;0.40;;;;;;;;;;5019329;28;20223;-78
2021/01/29 11:53:57;;;;;;;1.03;0.43;;;;;;;;;;5001474;28;20671;-79
2021/01/29 11:56:29;;;;;;;0.97;0.60;;;;;;;;;;5018445;28;20556;-78
2021/01/29 11:59:15;;;;;;;1.23;0.67;;;;;;;;;;5016331;28;20179;-77
2021/01/29 12:01:47;;;;;;;1.57;0.70;;;;;;;;;;5009521;28;20711;-80
2021/01/29 12:04:32;;;;;;;1.57;0.67;;;;;;;;;;5023250;28;20199;-79
2021/01/29 12:07:04;;;;;;;3.97;1.20;;;;;;;;;;5004877;28;20649;-79
2021/01/29 12:09:40;;;;;;;4.07;0.80;;;;;;;;;;5020687;28;20248;-79
2021/01/29 12:12:09;;;;;;;6.27;1.00;;;;;;;;;;5016998;28;20220;-80
2021/01/29 12:14:45;;;;;;;1.70;0.90;;;;;;;;;;5018096;28;20187;-80
2021/01/29 12:17:11;;;;;;;5.23;1.10;;;;;;;;;;5020891;28;20184;-79
2021/01/29 12:19:42;;;;;;;5.70;1.37;;;;;;;;;;5024775;28;20204;-79
2021/01/29 12:22:16;;;;;;;2.70;0.90;;;;;;;;;;5027527;28;20224;-79
2021/01/29 12:24:59;;;;;;;3.63;1.00;;;;;;;;;;5020826;28;20180;-79
2021/01/29 12:27:27;;;;;;;2.83;0.90;;;;;;;;;;5013827;28;20178;-79
2021/01/29 12:30:16;;;;;;;5.40;1.20;;;;;;;;;;5025550;28;20189;-79
2021/01/29 12:32:48;;;;;;;3.10;1.00;;;;;;;;;;4996688;28;20296;-79
2021/01/29 12:35:23;;;;;;;2.27;1.23;;;;;;;;;;5020957;28;20657;-78
2021/01/29 12:37:49;;;;;;;6.27;1.80;;;;;;;;;;5004874;28;20189;-80
2021/01/29 12:40:29;;;;;;;2.00;1.07;;;;;;;;;;5009067;28;20203;-78
2021/01/29 12:43:16;;;;;;;5.63;0.97;;;;;;;;;;5020445;28;20203;-79
2021/01/29 12:45:51;;;;;;;3.73;1.10;;;;;;;;;;5002088;28;20199;-80
2021/01/29 12:48:24;;;;;;;3.30;1.00;;;;;;;;;;5012194;28;20183;-80
2021/01/29 12:51:00;;;;;;;3.23;0.80;;;;;;;;;;5007999;28;20290;-79
2021/01/29 12:53:41;;;;;;;5.03;1.03;;;;;;;;;;5013001;28;20180;-80
2021/01/29 12:56:20;;;;;;;3.53;1.00;;;;;;;;;;5018890;28;20190;-78
2021/01/29 12:58:48;;;;;;;4.83;1.37;;;;;;;;;;5024939;28;20182;-78
2021/01/29 13:01:18;;;;;;;3.70;0.90;;;;;;;;;;5020167;28;20745;-81
2021/01/29 13:03:56;;;;;;;3.60;0.80;;;;;;;;;;5011670;28;20530;-80
2021/01/29 13:06:22;;;;;;;3.63;0.87;;;;;;;;;;5003947;28;20188;-80
2021/01/29 13:09:00;;;;;;;3.10;0.93;;;;;;;;;;5016138;28;20187;-80
2021/01/29 13:11:45;;;;;;;2.27;0.70;;;;;;;;;;5008211;28;20252;-80
2021/01/29 13:14:15;;;;;;;2.70;0.93;;;;;;;;;;5007440;28;20183;-80
2021/01/29 13:16:44;;;;;;;1.33;0.60;;;;;;;;;;5012461;28;20184;-79
2021/01/29 13:19:23;;;;;;;1.90;0.70;;;;;;;;;;5013763;28;20180;-79
2021/01/29 13:21:54;;;;;;;1.27;0.80;;;;;;;;;;5015160;28;20694;-81
2021/01/29 13:24:33;;;;;;;1.73;0.90;;;;;;;;;;5011665;28;20183;-80
2021/01/29 13:27:02;;;;;;;3.37;1.10;;;;;;;;;;5019639;28;20216;-80
2021/01/29 13:29:31;;;;;;;2.80;0.83;;;;;;;;;;5010384;28;20648;-80
2021/01/29 13:32:06;;;;;;;3.53;0.97;;;;;;;;;;5015752;28;20199;-81
2021/01/29 13:34:39;;;;;;;3.23;0.77;;;;;;;;;;5016912;28;20189;-80
2021/01/29 13:37:25;;;;;;;2.60;1.30;;;;;;;;;;5009533;28;20247;-80
2021/01/29 13:40:02;;;;;;;0.93;0.60;;;;;;;;;;5016714;28;20209;-79
2021/01/29 13:42:30;;;;;;;2.33;0.80;;;;;;;;;;5016149;28;20198;-79
2021/01/29 13:44:59;;;;;;;2.30;0.90;;;;;;;;;;5013857;28;20218;-79
2021/01/29 13:47:26;;;;;;;2.57;0.70;;;;;;;;;;5006518;28;20710;-78
2021/01/29 13:49:53;;;;;;;1.07;0.67;;;;;;;;;;5008837;28;20188;-79
2021/01/29 13:52:22;;;;;;;2.23;0.73;;;;;;;;;;5015820;28;20231;-79
2021/01/29 13:54:49;;;;;;;1.77;0.80;;;;;;;;;;5015642;28;20190;-80
2021/01/29 13:57:15;;;;;;;3.13;1.47;;;;;;;;;;5015869;28;20215;-78
2021/01/29 13:59:49;;;;;;;3.33;1.20;;;;;;;;;;5016278;28;20273;-77
2021/01/29 14:02:21;;;;;;;4.27;1.80;;;;;;;;;;5014822;28;20223;-78
2021/01/29 14:04:54;;;;;;;5.80;1.70;;;;;;;;;;5015137;28;20215;-79
2021/01/29 14:07:20;;;;;;;4.83;1.40;;;;;;;;;;5010675;28;20183;-79
2021/01/29 14:09:46;;;;;;;6.37;1.20;;;;;;;;;;5016221;28;20710;-79
2021/01/29 14:12:28;;;;;;;3.13;1.10;;;;;;;;;;4998194;28;20204;-79
2021/01/29 14:14:54;;;;;;;4.80;1.43;;;;;;;;;;4997587;28;20617;-78
2021/01/29 14:17:38;;;;;;;4.77;1.43;;;;;;;;;;4997847;28;20188;-79
2021/01/29 14:20:12;;;;;;;5.20;1.50;;;;;;;;;;5015538;28;20713;-79
2021/01/29 14:23:02;;;;;;;3.00;1.17;;;;;;;;;;5000367;28;20250;-79
2021/01/29 14:25:28;;;;;;;6.10;1.47;;;;;;;;;;4997276;28;20182;-79
2021/01/29 14:28:15;;;;;;;4.13;1.10;;;;;;;;;;4997499;28;20180;-78
2021/01/29 14:30:54;;;;;;;4.50;1.13;;;;;;;;;;4996881;28;20228;-77
2021/01/29 14:33:33;;;;;;;5.73;1.50;;;;;;;;;;5000792;28;20206;-78
2021/01/29 14:36:02;;;;;;;4.57;1.47;;;;;;;;;;5015138;28;20194;-79
2021/01/29 14:38:47;;;;;;;3.03;1.00;;;;;;;;;;5010076;28;20221;-79
2021/01/29 14:41:13;;;;;;;4.40;1.00;;;;;;;;;;4997642;28;20210;-77
2021/01/29 14:43:44;;;;;;;6.60;1.60;;;;;;;;;;5014610;28;20178;-79
2021/01/29 14:46:13;;;;;;;3.20;1.00;;;;;;;;;;5015923;28;20712;-78
2021/01/29 14:48:58;;;;;;;3.37;0.73;;;;;;;;;;5008205;28;20218;-78
2021/01/29 14:51:39;;;;;;;2.83;0.80;;;;;;;;;;5002917;28;20270;-78
2021/01/29 14:54:15;;;;;;;5.17;1.20;;;;;;;;;;5016153;28;20275;-78
2021/01/29 14:57:00;;;;;;;5.87;1.10;;;;;;;;;;5015959;28;20229;-78
2021/01/29 14:59:29;;;;;;;4.67;1.30;;;;;;;;;;5015154;28;20625;-79
2021/01/29 15:02:00;;;;;;;3.67;1.00;;;;;;;;;;5016633;28;20265;-79
2021/01/29 15:04:34;;;;;;;3.63;1.10;;;;;;;;;;5015864;28;20264;-79
2021/01/29 15:07:20;;;;;;;4.93;0.70;;;;;;;;;;5017364;28;20175;-78
2021/01/29 15:09:47;;;;;;;1.93;0.70;;;;;;;;;;4997699;28;20191;-79
2021/01/29 15:12:14;;;;;;;3.73;1.00;;;;;;;;;;4994977;28;20204;-79
2021/01/29 15:14:43;;;;;;;8.03;1.33;;;;;;;;;;5010679;28;20182;-78
2021/01/29 15:17:29;;;;;;;5.43;1.20;;;;;;;;;;4996148;28;20181;-79
2021/01/29 15:20:10;;;;;;;8.50;1.27;;;;;;;;;;4997462;28;20185;-79